Time;durP1;ratioP1;P1;durP2;ratioP2;P2;SDS_P1;SDS_P2;PMS_P1;PMS_P2;Temp;Humidity;BMP_temperature;BMP_pressure;BME280_temperature;BME280_humidity;BME280_pressure;Samples;Min_cycle;Max_cycle;Signal;HPM_P1;HPM_P2
2021/11/14 00:01:45;;;;;;;51.05;25.58;;;9.90;99.90;;;;;;4943525;29;20290;-84
2021/11/14 00:04:12;;;;;;;52.63;25.05;;;9.80;99.90;;;;;;4953644;29;20213;-85
2021/11/14 00:06:40;;;;;;;46.17;25.90;;;9.80;99.90;;;;;;4958758;29;20275;-84
2021/11/14 00:09:08;;;;;;;52.95;26.95;;;9.70;99.90;;;;;;4946747;29;20576;-85
2021/11/14 00:11:35;;;;;;;53.38;26.13;;;9.70;99.90;;;;;;4959313;29;20642;-85
2021/11/14 00:14:03;;;;;;;36.35;22.08;;;9.90;99.90;;;;;;4952813;29;20207;-83
2021/11/14 00:16:30;;;;;;;39.50;22.98;;;9.80;99.90;;;;;;4953736;29;20235;-85
2021/11/14 00:18:58;;;;;;;44.95;25.40;;;9.90;99.90;;;;;;4952254;29;20248;-83
2021/11/14 00:21:28;;;;;;;40.60;23.13;;;9.90;99.90;;;;;;4950593;29;20682;-84
2021/11/14 00:23:55;;;;;;;41.67;25.00;;;9.80;99.90;;;;;;4956533;28;20251;-85
2021/11/14 00:26:24;;;;;;;35.03;22.63;;;9.90;99.90;;;;;;4948454;28;20235;-86
2021/11/14 00:28:51;;;;;;;36.50;22.23;;;9.80;99.90;;;;;;4943435;29;20223;-85
2021/11/14 00:31:21;;;;;;;46.75;24.35;;;9.80;99.90;;;;;;4943515;28;20228;-85
2021/11/14 00:33:50;;;;;;;38.75;22.63;;;9.90;99.90;;;;;;4954573;29;20208;-84
2021/11/14 00:36:22;;;;;;;43.05;24.70;;;9.90;99.90;;;;;;4944514;29;20215;-84
2021/11/14 00:38:51;;;;;;;33.63;19.75;;;9.90;99.90;;;;;;4959513;29;20231;-84
2021/11/14 00:41:19;;;;;;;36.90;21.45;;;9.90;99.90;;;;;;4947059;29;20242;-84
2021/11/14 00:43:48;;;;;;;35.92;21.60;;;9.80;99.90;;;;;;4962213;29;20681;-83
2021/11/14 00:46:15;;;;;;;40.05;22.02;;;9.80;99.90;;;;;;4953287;29;20236;-84
2021/11/14 00:48:52;;;;;;;47.95;23.98;;;9.90;99.90;;;;;;4954126;29;20203;-84
2021/11/14 00:51:25;;;;;;;41.83;21.70;;;9.90;99.90;;;;;;4939514;29;20619;-83
2021/11/14 00:53:52;;;;;;;35.15;21.00;;;9.80;99.90;;;;;;4949855;29;20341;-86
2021/11/14 00:56:19;;;;;;;36.28;20.05;;;9.80;99.90;;;;;;4940714;29;20238;-85
2021/11/14 00:58:47;;;;;;;31.88;18.55;;;9.80;99.90;;;;;;4953795;29;20200;-85
2021/11/14 01:01:14;;;;;;;30.17;17.90;;;9.90;99.90;;;;;;4960167;29;20250;-83
2021/11/14 01:03:47;;;;;;;29.55;17.38;;;9.80;99.90;;;;;;4954302;29;20216;-82
2021/11/14 01:06:15;;;;;;;31.40;19.40;;;9.80;99.90;;;;;;4959314;29;20689;-85
2021/11/14 01:08:45;;;;;;;33.97;19.45;;;9.90;99.90;;;;;;4954024;29;20212;-86
2021/11/14 01:11:12;;;;;;;26.88;16.88;;;9.80;99.90;;;;;;4945467;29;20235;-85
2021/11/14 01:13:42;;;;;;;27.60;16.83;;;9.90;99.90;;;;;;4952160;29;20659;-86
2021/11/14 01:16:14;;;;;;;24.05;16.85;;;9.70;99.90;;;;;;4959548;29;20209;-83
2021/11/14 01:18:41;;;;;;;29.02;16.88;;;9.90;99.90;;;;;;4951621;29;20233;-85
2021/11/14 01:21:16;;;;;;;27.70;16.25;;;9.80;99.90;;;;;;4952403;29;20227;-86
2021/11/14 01:23:45;;;;;;;28.45;16.58;;;9.80;99.90;;;;;;4951600;29;20266;-85
2021/11/14 01:26:12;;;;;;;26.67;16.73;;;9.80;99.90;;;;;;4957803;28;20809;-83
2021/11/14 01:28:39;;;;;;;25.70;13.73;;;9.80;99.90;;;;;;4955436;29;20196;-83
2021/11/14 01:31:13;;;;;;;25.05;15.00;;;9.80;99.90;;;;;;4951009;29;20223;-85
2021/11/14 01:33:41;;;;;;;26.02;14.70;;;9.70;99.90;;;;;;4943477;29;20321;-85
2021/11/14 01:36:08;;;;;;;26.30;16.40;;;9.70;99.90;;;;;;4950677;29;20199;-84
2021/11/14 01:38:37;;;;;;;26.92;16.00;;;9.70;99.90;;;;;;4951726;29;20318;-85
2021/11/14 01:41:06;;;;;;;26.42;15.00;;;9.70;99.90;;;;;;4949451;29;20235;-85
2021/11/14 01:43:39;;;;;;;28.92;16.95;;;9.70;99.90;;;;;;4948799;29;20215;-84
2021/11/14 01:46:08;;;;;;;34.97;17.15;;;9.70;99.90;;;;;;4947139;29;20740;-85
2021/11/14 01:48:42;;;;;;;28.55;16.08;;;9.70;99.90;;;;;;4943936;29;20267;-85
2021/11/14 01:51:12;;;;;;;31.15;16.35;;;9.70;99.90;;;;;;4944523;29;20228;-84
2021/11/14 01:53:40;;;;;;;30.27;17.65;;;9.80;99.90;;;;;;4944344;29;20205;-85
2021/11/14 01:56:10;;;;;;;37.53;19.70;;;9.70;99.90;;;;;;4954961;29;20191;-85
2021/11/14 01:58:40;;;;;;;33.28;18.42;;;9.80;99.90;;;;;;4953698;29;20219;-86
2021/11/14 02:01:14;;;;;;;39.35;18.17;;;9.90;99.90;;;;;;4957676;28;20652;-84
2021/11/14 02:03:44;;;;;;;29.88;18.02;;;9.80;99.90;;;;;;4957065;29;20227;-85
2021/11/14 02:06:12;;;;;;;31.48;19.60;;;9.90;99.90;;;;;;4937310;29;20244;-86
2021/11/14 02:08:41;;;;;;;35.33;19.27;;;9.90;99.90;;;;;;4945302;29;20207;-85
2021/11/14 02:11:14;;;;;;;31.35;18.38;;;9.90;99.90;;;;;;4949680;29;20239;-84
2021/11/14 02:13:41;;;;;;;35.05;19.90;;;9.80;99.90;;;;;;4946960;29;20212;-85
2021/11/14 02:16:08;;;;;;;33.95;19.85;;;9.80;99.90;;;;;;4944820;29;20246;-85
2021/11/14 02:18:35;;;;;;;35.13;18.30;;;9.90;99.90;;;;;;4958743;29;20306;-84
2021/11/14 02:21:04;;;;;;;34.35;18.45;;;9.80;99.90;;;;;;4943364;29;20231;-84
2021/11/14 02:23:32;;;;;;;33.78;19.50;;;9.80;99.90;;;;;;4961080;28;20239;-85
2021/11/14 02:25:59;;;;;;;30.02;17.83;;;9.70;99.90;;;;;;4955629;29;20634;-84
2021/11/14 02:28:26;;;;;;;30.30;17.60;;;9.70;99.90;;;;;;4945579;29;20207;-83
2021/11/14 02:30:56;;;;;;;34.50;18.70;;;9.80;99.90;;;;;;4954776;28;20259;-85
2021/11/14 02:33:26;;;;;;;29.88;15.70;;;9.70;99.90;;;;;;4966371;28;20207;-85
2021/11/14 02:35:55;;;;;;;25.27;16.13;;;9.80;99.90;;;;;;4953270;29;20263;-85
2021/11/14 02:38:24;;;;;;;26.50;17.30;;;9.80;99.90;;;;;;4966906;28;20234;-85
2021/11/14 02:41:12;;;;;;;21.00;15.35;;;9.70;99.90;;;;;;4940439;29;20228;-86
2021/11/14 02:43:45;;;;;;;25.45;14.48;;;9.80;99.90;;;;;;4949047;29;20195;-84
2021/11/14 02:46:13;;;;;;;31.02;17.35;;;9.60;99.90;;;;;;4955097;29;20195;-84
2021/11/14 02:48:40;;;;;;;30.83;18.70;;;9.70;99.90;;;;;;4957870;29;20569;-85
2021/11/14 02:51:11;;;;;;;31.33;16.83;;;9.70;99.90;;;;;;4950987;29;20231;-85
2021/11/14 02:53:40;;;;;;;33.70;17.13;;;9.70;99.90;;;;;;4939144;29;20208;-85
2021/11/14 02:56:07;;;;;;;27.90;18.10;;;9.70;99.90;;;;;;4943915;29;20267;-85
2021/11/14 02:58:35;;;;;;;28.95;15.90;;;9.70;99.90;;;;;;4947775;29;20227;-85
2021/11/14 03:01:06;;;;;;;31.17;18.67;;;9.50;99.90;;;;;;4946104;29;20223;-83
2021/11/14 03:03:37;;;;;;;37.92;17.98;;;9.60;99.90;;;;;;4944980;29;20261;-85
2021/11/14 03:06:05;;;;;;;32.17;16.63;;;9.50;99.90;;;;;;4954031;29;20211;-85
2021/11/14 03:08:33;;;;;;;26.48;15.85;;;9.50;99.90;;;;;;4948842;29;20584;-85
2021/11/14 03:11:02;;;;;;;34.35;18.52;;;9.50;99.90;;;;;;4949981;29;20228;-86
2021/11/14 03:13:29;;;;;;;22.00;15.80;;;9.50;99.90;;;;;;4965810;29;20199;-83
2021/11/14 03:15:58;;;;;;;25.20;16.05;;;9.60;99.90;;;;;;4961322;29;20207;-84
2021/11/14 03:18:26;;;;;;;30.65;16.80;;;9.60;99.90;;;;;;4952899;29;20280;-84
2021/11/14 03:20:57;;;;;;;29.50;17.65;;;9.60;99.90;;;;;;4962620;28;20227;-84
2021/11/14 03:23:26;;;;;;;31.60;16.48;;;9.60;99.90;;;;;;4943149;29;20203;-83
2021/11/14 03:25:54;;;;;;;23.42;15.43;;;9.60;99.90;;;;;;4955297;29;20208;-85
2021/11/14 03:28:23;;;;;;;27.13;16.75;;;9.70;99.90;;;;;;4955737;29;20200;-85
2021/11/14 03:30:52;;;;;;;32.35;16.92;;;9.70;99.90;;;;;;4948627;29;20223;-85
2021/11/14 03:33:18;;;;;;;25.27;16.30;;;9.70;99.90;;;;;;4950148;29;20290;-85
2021/11/14 03:35:49;;;;;;;30.65;17.17;;;9.70;99.90;;;;;;4945770;29;20322;-85
2021/11/14 03:38:19;;;;;;;25.17;17.88;;;9.70;99.90;;;;;;4946530;29;20234;-88
2021/11/14 03:40:49;;;;;;;29.05;15.93;;;9.70;99.90;;;;;;4955151;28;20267;-82
2021/11/14 03:43:16;;;;;;;29.85;16.80;;;9.70;99.90;;;;;;4954697;29;20258;-82
2021/11/14 03:45:45;;;;;;;23.58;15.30;;;9.70;99.90;;;;;;4948460;29;20228;-85
2021/11/14 03:48:13;;;;;;;26.17;15.32;;;9.70;99.90;;;;;;4950415;28;20207;-87
2021/11/14 03:50:40;;;;;;;25.58;15.00;;;9.80;99.90;;;;;;4949902;28;20207;-86
2021/11/14 03:53:09;;;;;;;29.42;18.23;;;9.80;99.90;;;;;;4960474;28;20202;-87
2021/11/14 03:55:37;;;;;;;25.83;17.10;;;9.80;99.90;;;;;;4951753;28;20189;-87
2021/11/14 03:58:05;;;;;;;35.58;19.17;;;9.80;99.90;;;;;;4960076;28;20255;-85
2021/11/14 04:00:36;;;;;;;25.30;15.60;;;9.80;99.90;;;;;;4972463;28;20215;-84
2021/11/14 04:03:05;;;;;;;22.05;14.90;;;9.60;99.90;;;;;;4951899;28;20194;-85
2021/11/14 04:05:32;;;;;;;28.75;16.95;;;9.80;99.90;;;;;;4958483;28;20196;-83
2021/11/14 04:08:00;;;;;;;25.88;16.20;;;9.80;99.90;;;;;;4961462;29;20228;-82
2021/11/14 04:10:28;;;;;;;28.45;16.73;;;9.80;99.90;;;;;;4951324;29;20219;-82
2021/11/14 04:12:59;;;;;;;29.77;19.63;;;9.70;99.90;;;;;;4974537;29;20214;-83
2021/11/14 04:15:26;;;;;;;30.13;17.92;;;9.70;99.90;;;;;;4962537;29;20224;-82
2021/11/14 04:17:56;;;;;;;27.20;17.88;;;9.80;99.90;;;;;;4954935;29;20222;-83
2021/11/14 04:20:29;;;;;;;35.90;18.65;;;9.80;99.90;;;;;;4953107;29;20238;-83
2021/11/14 04:22:57;;;;;;;21.63;15.20;;;9.70;99.90;;;;;;4952948;29;20271;-83
2021/11/14 04:25:27;;;;;;;23.13;15.48;;;9.70;99.90;;;;;;4953979;29;20280;-83
2021/11/14 04:27:58;;;;;;;22.80;15.23;;;9.70;99.90;;;;;;4954320;29;20207;-86
2021/11/14 04:30:26;;;;;;;28.67;17.90;;;9.80;99.90;;;;;;4966568;28;20275;-87
2021/11/14 04:32:53;;;;;;;24.45;15.55;;;9.80;99.90;;;;;;4957978;28;20222;-84
2021/11/14 04:35:21;;;;;;;25.15;18.10;;;9.80;99.90;;;;;;4957215;29;20392;-84
2021/11/14 04:37:51;;;;;;;30.20;17.00;;;9.90;99.90;;;;;;4957056;29;20248;-84
2021/11/14 04:40:20;;;;;;;27.77;18.45;;;9.90;99.90;;;;;;4953804;29;20322;-83
2021/11/14 04:42:48;;;;;;;24.42;17.20;;;9.90;99.90;;;;;;4955806;29;20204;-83
2021/11/14 04:45:15;;;;;;;33.35;20.90;;;9.90;99.90;;;;;;4958064;29;20247;-86
2021/11/14 04:47:42;;;;;;;30.77;20.20;;;9.90;99.90;;;;;;4959100;29;20200;-84
2021/11/14 04:50:13;;;;;;;28.95;18.08;;;9.90;99.90;;;;;;4961080;28;20239;-85
2021/11/14 04:52:41;;;;;;;33.22;20.13;;;9.80;99.90;;;;;;4961898;28;20210;-83
2021/11/14 04:55:10;;;;;;;37.33;20.05;;;9.80;99.90;;;;;;4960265;28;20212;-84
2021/11/14 04:57:38;;;;;;;32.78;22.20;;;9.70;99.90;;;;;;4957112;28;20188;-84
2021/11/14 05:00:06;;;;;;;41.97;20.05;;;9.70;99.90;;;;;;4959253;28;20223;-82
2021/11/14 05:02:33;;;;;;;36.33;19.90;;;9.70;99.90;;;;;;4959382;29;20204;-83
2021/11/14 05:05:01;;;;;;;34.50;21.33;;;9.80;99.90;;;;;;4958565;29;20203;-84
2021/11/14 05:07:28;;;;;;;39.03;22.05;;;9.80;99.90;;;;;;4959329;29;20228;-83
2021/11/14 05:09:55;;;;;;;40.55;21.50;;;9.70;99.90;;;;;;4958662;29;20271;-86
2021/11/14 05:12:23;;;;;;;42.25;22.33;;;9.80;99.90;;;;;;4962302;29;20227;-82
2021/11/14 05:14:51;;;;;;;42.15;25.55;;;9.70;99.90;;;;;;4958275;29;20198;-83
2021/11/14 05:17:18;;;;;;;35.45;20.58;;;9.70;99.90;;;;;;4956223;29;20204;-83
2021/11/14 05:19:44;;;;;;;47.28;23.23;;;9.70;99.90;;;;;;4960296;29;20267;-83
2021/11/14 05:22:12;;;;;;;36.90;22.20;;;9.70;99.90;;;;;;4942541;29;20234;-82
2021/11/14 05:24:39;;;;;;;42.75;23.23;;;9.70;99.90;;;;;;4959157;29;20207;-84
2021/11/14 05:27:06;;;;;;;36.65;22.67;;;9.80;99.90;;;;;;4970803;29;20203;-83
2021/11/14 05:29:34;;;;;;;46.72;25.85;;;9.70;99.90;;;;;;4955512;29;20235;-84
2021/11/14 05:32:02;;;;;;;43.30;24.05;;;9.70;99.90;;;;;;4954018;29;20232;-82
2021/11/14 05:34:29;;;;;;;36.03;21.15;;;9.70;99.90;;;;;;4955492;29;20204;-82
2021/11/14 05:36:56;;;;;;;45.28;22.90;;;9.70;99.90;;;;;;4958534;28;20224;-83
2021/11/14 05:39:23;;;;;;;41.13;22.35;;;9.90;99.90;;;;;;4957536;28;20230;-83
2021/11/14 05:41:58;;;;;;;39.80;23.25;;;9.80;99.90;;;;;;4946187;29;20223;-83
2021/11/14 05:44:25;;;;;;;45.38;24.08;;;9.80;99.90;;;;;;4958151;29;20219;-84
2021/11/14 05:46:53;;;;;;;37.70;22.67;;;9.80;99.90;;;;;;4957257;29;20213;-85
2021/11/14 05:49:20;;;;;;;43.95;23.10;;;9.80;99.90;;;;;;4956715;29;20666;-85
2021/11/14 05:51:49;;;;;;;39.03;23.08;;;9.90;99.90;;;;;;4950287;29;20719;-83
2021/11/14 05:54:16;;;;;;;37.97;22.98;;;9.80;99.90;;;;;;4945792;29;20250;-84
2021/11/14 05:56:43;;;;;;;38.85;22.35;;;10.00;99.90;;;;;;4952076;29;20214;-83
2021/11/14 05:59:26;;;;;;;38.60;23.30;;;9.90;99.90;;;;;;4948321;29;20279;-83
2021/11/14 06:01:58;;;;;;;45.33;25.33;;;9.80;99.90;;;;;;4949274;29;20361;-86
2021/11/14 06:04:30;;;;;;;54.10;26.02;;;9.70;99.90;;;;;;4961874;29;20227;-86
2021/11/14 06:06:57;;;;;;;39.03;22.95;;;9.70;99.90;;;;;;4957438;29;20291;-85
2021/11/14 06:09:24;;;;;;;44.63;26.65;;;9.70;99.90;;;;;;4961913;29;20215;-84
2021/11/14 06:11:51;;;;;;;53.28;27.35;;;9.80;99.90;;;;;;4962671;29;20261;-84
2021/11/14 06:14:18;;;;;;;47.58;24.02;;;9.90;99.90;;;;;;4952940;29;20222;-83
2021/11/14 06:16:48;;;;;;;47.17;25.27;;;9.90;99.90;;;;;;4953599;29;20235;-84
2021/11/14 06:19:17;;;;;;;44.28;26.35;;;9.90;99.90;;;;;;4961271;29;20251;-83
2021/11/14 06:21:44;;;;;;;51.40;26.40;;;9.90;99.90;;;;;;4948489;29;20232;-82
2021/11/14 06:24:11;;;;;;;50.55;24.42;;;9.80;99.90;;;;;;4953776;29;20215;-82
2021/11/14 06:26:39;;;;;;;52.60;26.88;;;9.90;99.90;;;;;;4962262;28;20199;-86
2021/11/14 06:29:06;;;;;;;54.90;27.67;;;9.90;99.90;;;;;;4962300;28;20192;-84
2021/11/14 06:31:45;;;;;;;48.50;26.58;;;9.90;99.90;;;;;;4959546;28;20217;-83
2021/11/14 06:34:15;;;;;;;45.10;27.38;;;9.80;99.90;;;;;;4954214;29;20217;-83
2021/11/14 06:36:43;;;;;;;48.67;24.20;;;10.00;99.90;;;;;;4963813;29;20215;-84
2021/11/14 06:39:10;;;;;;;52.97;28.02;;;9.90;99.90;;;;;;4960538;29;20219;-83
2021/11/14 06:41:37;;;;;;;69.05;33.08;;;9.90;99.90;;;;;;4957914;29;20259;-84
2021/11/14 06:44:08;;;;;;;55.95;29.25;;;10.00;99.90;;;;;;4948048;29;20208;-82
2021/11/14 06:46:35;;;;;;;53.80;28.23;;;9.90;99.90;;;;;;4954828;29;20314;-83
2021/11/14 06:49:02;;;;;;;50.78;26.67;;;9.90;99.90;;;;;;4952300;29;20325;-83
2021/11/14 06:51:29;;;;;;;48.58;26.63;;;10.00;99.90;;;;;;4947745;29;20232;-84
2021/11/14 06:53:57;;;;;;;51.88;26.58;;;9.90;99.90;;;;;;4941812;29;20208;-85
2021/11/14 06:56:24;;;;;;;60.22;28.17;;;10.00;99.90;;;;;;4956321;29;20208;-84
2021/11/14 06:58:51;;;;;;;55.92;27.17;;;9.90;99.90;;;;;;4954922;29;20266;-84
2021/11/14 07:01:20;;;;;;;52.30;27.73;;;9.90;99.90;;;;;;4956307;29;20231;-83
2021/11/14 07:03:47;;;;;;;60.38;30.80;;;9.90;99.90;;;;;;4965944;28;20195;-85
2021/11/14 07:06:15;;;;;;;49.88;27.83;;;9.80;99.90;;;;;;4970792;28;20215;-87
2021/11/14 07:08:42;;;;;;;57.63;29.88;;;9.90;99.90;;;;;;4962091;28;20192;-87
2021/11/14 07:11:10;;;;;;;50.20;27.42;;;9.90;99.90;;;;;;4961913;28;20287;-86
2021/11/14 07:13:37;;;;;;;60.80;29.00;;;9.90;99.90;;;;;;4957867;28;20216;-87
2021/11/14 07:16:04;;;;;;;52.45;27.73;;;9.90;99.90;;;;;;4962768;28;20231;-86
2021/11/14 07:18:31;;;;;;;43.38;26.45;;;9.90;99.90;;;;;;4963785;28;20217;-86
2021/11/14 07:20:58;;;;;;;47.38;26.55;;;9.80;99.90;;;;;;4967185;28;20223;-85
2021/11/14 07:23:25;;;;;;;50.65;29.17;;;9.90;99.90;;;;;;4959149;28;20199;-87
2021/11/14 07:25:52;;;;;;;43.95;23.70;;;9.90;99.90;;;;;;4963788;28;20202;-87
2021/11/14 07:28:21;;;;;;;45.30;27.83;;;10.00;99.90;;;;;;4958047;28;20259;-84
2021/11/14 07:30:52;;;;;;;56.63;30.02;;;10.00;99.90;;;;;;4955547;28;20276;-82
2021/11/14 07:33:18;;;;;;;60.45;28.17;;;10.00;99.90;;;;;;4957681;28;20226;-82
2021/11/14 07:35:45;;;;;;;45.53;26.38;;;10.10;99.90;;;;;;4953082;28;20235;-82
2021/11/14 07:38:12;;;;;;;55.88;27.63;;;10.00;99.90;;;;;;4953331;28;20249;-82
2021/11/14 07:40:39;;;;;;;47.65;26.17;;;10.10;99.90;;;;;;4957058;28;20239;-83
2021/11/14 07:43:06;;;;;;;53.45;28.15;;;10.10;99.90;;;;;;4954947;28;20192;-83
2021/11/14 07:45:59;;;;;;;51.65;25.77;;;10.20;99.90;;;;;;4964461;28;20196;-88
2021/11/14 07:48:27;;;;;;;46.60;26.35;;;10.10;99.90;;;;;;4954090;28;20215;-85
2021/11/14 07:50:55;;;;;;;44.58;27.58;;;10.10;99.90;;;;;;4943186;29;20322;-85
2021/11/14 07:53:22;;;;;;;50.55;28.60;;;10.30;99.90;;;;;;4961743;28;20203;-84
2021/11/14 07:55:50;;;;;;;53.20;26.58;;;10.10;99.90;;;;;;4960399;28;20259;-87
2021/11/14 07:58:17;;;;;;;52.13;27.17;;;10.20;99.90;;;;;;4959063;28;20195;-86
2021/11/14 08:00:44;;;;;;;47.05;24.85;;;10.30;99.90;;;;;;4953916;28;20219;-86
2021/11/14 08:03:15;;;;;;;49.22;27.60;;;10.30;99.90;;;;;;4962479;28;20207;-87
2021/11/14 08:05:43;;;;;;;44.80;23.92;;;10.40;99.90;;;;;;4961517;28;20193;-87
2021/11/14 08:08:11;;;;;;;49.17;26.95;;;10.40;99.90;;;;;;4951722;28;20195;-86
2021/11/14 08:10:39;;;;;;;53.05;28.02;;;10.40;99.90;;;;;;4958474;28;20216;-87
2021/11/14 08:13:06;;;;;;;46.25;24.23;;;10.40;99.90;;;;;;4958904;28;20192;-85
2021/11/14 08:15:33;;;;;;;46.63;26.38;;;10.50;99.90;;;;;;4959070;28;20193;-85
2021/11/14 08:18:00;;;;;;;51.50;27.77;;;10.40;99.90;;;;;;4959312;28;20201;-84
2021/11/14 08:20:28;;;;;;;48.47;25.98;;;10.50;99.90;;;;;;4957264;28;20232;-86
2021/11/14 08:22:59;;;;;;;43.20;27.67;;;10.50;99.90;;;;;;4947847;28;20206;-85
2021/11/14 08:25:27;;;;;;;54.92;26.50;;;10.50;99.90;;;;;;4944345;29;20203;-82
2021/11/14 08:28:03;;;;;;;51.90;26.70;;;10.50;99.90;;;;;;4954105;29;20215;-83
2021/11/14 08:30:30;;;;;;;57.38;28.63;;;10.50;99.90;;;;;;4931875;29;20228;-83
2021/11/14 08:33:41;;;;;;;57.20;29.05;;;10.50;99.90;;;;;;4945887;29;20203;-84
2021/11/14 09:03:22;;;;;;;55.78;27.45;;;10.30;99.90;;;;;;4909361;29;20212;-86
2021/11/14 09:23:55;;;;;;;54.58;25.92;;;10.40;99.90;;;;;;4973613;28;20218;-85
2021/11/14 09:26:22;;;;;;;64.65;28.33;;;10.40;99.90;;;;;;4973574;28;20236;-84
2021/11/14 09:28:52;;;;;;;55.75;29.50;;;10.40;99.90;;;;;;4973409;28;20209;-84
2021/11/14 09:31:20;;;;;;;56.42;26.05;;;10.40;99.90;;;;;;4967234;28;20352;-84
2021/11/14 09:37:12;;;;;;;64.90;25.92;;;10.60;99.90;;;;;;4961617;28;20235;-84
2021/11/14 09:40:09;;;;;;;61.83;28.05;;;10.60;99.90;;;;;;4961667;28;20223;-84
2021/11/14 09:46:04;;;;;;;54.08;25.38;;;10.60;99.90;;;;;;4953220;28;20287;-85
2021/11/14 09:48:33;;;;;;;49.13;24.10;;;10.60;99.90;;;;;;4969922;28;20298;-88
2021/11/14 09:51:01;;;;;;;57.88;26.30;;;10.60;99.90;;;;;;4972098;28;20222;-85
2021/11/14 09:53:32;;;;;;;54.33;25.40;;;10.60;99.90;;;;;;4970971;28;20262;-86
2021/11/14 09:59:16;;;;;;;57.42;27.65;;;10.70;99.90;;;;;;4945492;29;20224;-84
2021/11/14 10:01:59;;;;;;;58.58;28.92;;;10.60;99.90;;;;;;4910321;29;20229;-86
2021/11/14 10:04:26;;;;;;;53.70;27.13;;;10.70;99.90;;;;;;4928814;29;20204;-85
2021/11/14 10:06:58;;;;;;;56.60;27.13;;;10.70;99.90;;;;;;4927489;29;20205;-85
2021/11/14 10:09:38;;;;;;;63.92;30.88;;;10.90;99.90;;;;;;4964632;28;20202;-86
2021/11/14 10:12:17;;;;;;;57.88;26.67;;;10.90;99.90;;;;;;4973000;28;20218;-85
2021/11/14 10:14:48;;;;;;;51.30;27.30;;;10.90;99.90;;;;;;4971563;28;20216;-85
2021/11/14 10:17:19;;;;;;;51.53;24.70;;;10.90;99.90;;;;;;4971714;28;20234;-86
2021/11/14 10:20:02;;;;;;;50.80;26.35;;;10.90;99.90;;;;;;4976277;28;20240;-86
2021/11/14 10:22:29;;;;;;;57.75;25.98;;;10.90;99.90;;;;;;4979402;28;20202;-86
2021/11/14 10:24:57;;;;;;;71.35;29.33;;;11.00;99.90;;;;;;4969537;28;20206;-85
2021/11/14 10:27:27;;;;;;;51.95;27.23;;;10.80;99.90;;;;;;4981550;28;20266;-85
2021/11/14 10:29:57;;;;;;;57.83;26.75;;;10.90;99.90;;;;;;4968942;28;20231;-86
2021/11/14 10:32:26;;;;;;;63.85;29.83;;;10.90;99.90;;;;;;4971167;28;20228;-86
2021/11/14 10:34:57;;;;;;;54.58;27.55;;;10.80;99.90;;;;;;4969256;28;20215;-85
2021/11/14 10:37:25;;;;;;;53.22;27.40;;;10.80;99.90;;;;;;4976020;28;20208;-86
2021/11/14 10:39:54;;;;;;;51.20;27.95;;;11.00;99.90;;;;;;4962717;28;20239;-86
2021/11/14 10:42:22;;;;;;;49.92;27.90;;;11.00;99.90;;;;;;4977980;28;20212;-86
2021/11/14 10:44:52;;;;;;;50.75;27.52;;;11.00;99.90;;;;;;4970245;28;20245;-85
2021/11/14 10:47:23;;;;;;;55.40;28.30;;;11.10;99.90;;;;;;4969796;28;20209;-86
2021/11/14 10:49:55;;;;;;;56.53;28.15;;;11.00;99.90;;;;;;4973781;28;20206;-86
2021/11/14 10:52:23;;;;;;;52.90;28.48;;;11.00;99.90;;;;;;4965661;28;20206;-86
2021/11/14 10:55:02;;;;;;;54.10;28.58;;;11.00;99.90;;;;;;4968291;28;20210;-86
2021/11/14 10:57:32;;;;;;;53.85;27.58;;;11.00;99.90;;;;;;4962985;28;20659;-85
2021/11/14 11:00:00;;;;;;;48.65;25.55;;;11.20;99.90;;;;;;4968756;28;20230;-85
2021/11/14 11:02:33;;;;;;;51.17;26.58;;;11.10;99.90;;;;;;4973804;28;20231;-84
2021/11/14 11:05:15;;;;;;;53.50;27.00;;;11.10;99.90;;;;;;4963033;28;20209;-86
2021/11/14 11:07:43;;;;;;;47.10;26.15;;;11.20;99.90;;;;;;4966209;28;20213;-85
2021/11/14 11:10:11;;;;;;;54.92;26.35;;;11.30;99.90;;;;;;4975017;28;20232;-85
2021/11/14 11:12:38;;;;;;;52.70;27.98;;;11.40;99.90;;;;;;4959674;28;20218;-85
2021/11/14 11:15:10;;;;;;;43.90;23.00;;;11.50;99.90;;;;;;4956154;28;20213;-85
2021/11/14 11:17:48;;;;;;;51.08;26.30;;;11.40;99.90;;;;;;4965981;28;20232;-86
2021/11/14 11:20:17;;;;;;;50.63;24.85;;;11.50;99.90;;;;;;4970998;28;20267;-86
2021/11/14 11:22:58;;;;;;;42.58;23.63;;;11.40;99.90;;;;;;4966929;28;20244;-86
2021/11/14 11:25:35;;;;;;;39.20;23.85;;;11.50;99.90;;;;;;4960219;29;20253;-85
2021/11/14 11:28:03;;;;;;;51.13;26.63;;;11.40;99.90;;;;;;4965995;28;20222;-86
2021/11/14 11:30:37;;;;;;;51.33;24.63;;;11.30;99.90;;;;;;4975074;28;20223;-86
2021/11/14 11:33:11;;;;;;;45.00;24.15;;;11.40;99.90;;;;;;4995894;28;20210;-83
2021/11/14 11:35:38;;;;;;;39.13;22.73;;;11.40;99.90;;;;;;4981040;28;20213;-84
2021/11/14 11:38:07;;;;;;;47.72;22.83;;;11.40;99.90;;;;;;4955295;28;20212;-85
2021/11/14 11:40:35;;;;;;;46.03;23.23;;;11.50;99.90;;;;;;4968626;28;20287;-85
2021/11/14 11:43:03;;;;;;;35.55;22.75;;;11.60;99.90;;;;;;4973020;28;20232;-86
2021/11/14 11:45:33;;;;;;;36.20;20.60;;;11.60;99.90;;;;;;4966101;28;20346;-86
2021/11/14 11:48:04;;;;;;;34.47;20.48;;;11.60;99.90;;;;;;4962021;28;20196;-86
2021/11/14 11:50:35;;;;;;;34.03;18.35;;;11.50;99.90;;;;;;4954609;28;20690;-83
2021/11/14 11:53:03;;;;;;;32.78;19.42;;;11.50;99.90;;;;;;4958294;28;20276;-82
2021/11/14 11:55:47;;;;;;;41.60;20.35;;;11.30;99.90;;;;;;4977207;28;20205;-82
2021/11/14 11:58:19;;;;;;;35.63;20.70;;;11.20;99.90;;;;;;4961385;29;20210;-85
2021/11/14 12:00:54;;;;;;;45.05;19.90;;;11.20;99.90;;;;;;4966730;28;20241;-86
2021/11/14 12:03:30;;;;;;;29.85;17.75;;;11.20;99.90;;;;;;4969361;28;20204;-86
2021/11/14 12:06:01;;;;;;;34.88;21.38;;;11.30;99.90;;;;;;4969957;28;20204;-87
2021/11/14 12:08:43;;;;;;;32.95;19.60;;;11.20;99.90;;;;;;4969696;28;20224;-86
2021/11/14 12:11:15;;;;;;;32.60;17.65;;;11.20;99.90;;;;;;4980729;28;20236;-86
2021/11/14 12:13:52;;;;;;;29.23;15.50;;;11.20;99.90;;;;;;4963629;29;20210;-87
2021/11/14 12:16:27;;;;;;;35.47;19.52;;;11.10;99.90;;;;;;4975076;28;20231;-86
2021/11/14 12:18:56;;;;;;;37.22;20.08;;;11.30;99.90;;;;;;4971771;28;20264;-84
2021/11/14 12:21:55;;;;;;;30.27;17.85;;;11.10;99.90;;;;;;4981851;28;20250;-85
2021/11/14 12:24:24;;;;;;;37.92;20.85;;;11.20;99.90;;;;;;4968527;28;20244;-83
2021/11/14 12:26:52;;;;;;;32.40;19.90;;;11.20;99.90;;;;;;4962559;28;20612;-87
2021/11/14 12:29:32;;;;;;;36.80;19.10;;;11.30;99.90;;;;;;4984450;28;20217;-84
2021/11/14 12:32:18;;;;;;;37.55;21.38;;;11.20;99.90;;;;;;4964996;28;20284;-86
2021/11/14 12:35:02;;;;;;;30.88;18.38;;;11.30;99.90;;;;;;4977055;28;20210;-83
2021/11/14 12:37:46;;;;;;;31.13;18.48;;;11.30;99.90;;;;;;4979629;29;20192;-84
2021/11/14 12:40:21;;;;;;;26.85;17.20;;;11.10;99.90;;;;;;4981598;28;20223;-87
2021/11/14 12:42:48;;;;;;;26.38;14.65;;;11.10;99.90;;;;;;4974155;28;20244;-87
2021/11/14 12:45:17;;;;;;;29.48;17.40;;;11.10;99.90;;;;;;4974172;28;20203;-86
2021/11/14 12:47:47;;;;;;;31.50;16.45;;;10.90;99.90;;;;;;4976292;28;20217;-86
2021/11/14 12:50:18;;;;;;;21.00;13.32;;;11.30;99.90;;;;;;4966947;28;20291;-85
2021/11/14 12:52:48;;;;;;;19.13;11.02;;;11.20;99.90;;;;;;4965235;28;20286;-85
2021/11/14 12:55:20;;;;;;;22.15;11.00;;;11.10;99.90;;;;;;4973816;28;20204;-85
2021/11/14 12:57:53;;;;;;;16.90;10.25;;;11.20;99.90;;;;;;4970770;28;20217;-84
2021/11/14 13:00:33;;;;;;;15.18;10.75;;;11.20;99.90;;;;;;4958560;29;20239;-83
2021/11/14 13:03:03;;;;;;;11.88;8.52;;;11.20;99.90;;;;;;4962531;28;20224;-87
2021/11/14 13:05:41;;;;;;;13.95;8.07;;;11.20;99.90;;;;;;4972289;28;20221;-86
2021/11/14 13:08:25;;;;;;;13.23;8.30;;;11.20;99.90;;;;;;4981045;28;20203;-86
2021/11/14 13:10:57;;;;;;;9.57;7.40;;;11.30;99.90;;;;;;4974790;28;20245;-84
2021/11/14 13:13:33;;;;;;;12.43;8.85;;;11.20;99.90;;;;;;4973455;28;20199;-84
2021/11/14 13:16:02;;;;;;;13.52;8.43;;;11.30;99.90;;;;;;4972018;29;20202;-84
2021/11/14 13:18:29;;;;;;;11.93;7.47;;;11.10;99.90;;;;;;4969911;28;20236;-84
2021/11/14 13:20:58;;;;;;;9.57;6.10;;;10.90;99.90;;;;;;4973385;28;20226;-83
2021/11/14 13:23:27;;;;;;;16.95;7.80;;;10.90;99.90;;;;;;4976037;28;20211;-85
2021/11/14 13:26:05;;;;;;;15.75;8.50;;;10.90;99.90;;;;;;4973780;28;20213;-83
2021/11/14 13:28:33;;;;;;;10.13;7.03;;;10.90;99.90;;;;;;4972443;28;20225;-85
2021/11/14 13:31:00;;;;;;;10.23;7.60;;;10.80;99.90;;;;;;4969288;29;20576;-83
2021/11/14 13:33:27;;;;;;;12.52;7.32;;;10.80;99.90;;;;;;4975285;28;20262;-86
2021/11/14 13:35:54;;;;;;;11.80;8.82;;;10.80;99.90;;;;;;4957629;28;20216;-84
2021/11/14 13:38:21;;;;;;;10.88;8.40;;;10.70;99.90;;;;;;4983424;28;20266;-84
2021/11/14 13:40:50;;;;;;;13.95;9.60;;;10.70;99.90;;;;;;4974626;28;20232;-85
2021/11/14 13:43:19;;;;;;;12.65;9.02;;;10.60;99.90;;;;;;4960360;28;20205;-85